createdAt,value
2019-04-23T00:00:21.919Z,6.50
2019-04-23T00:02:53.428Z,6.50
2019-04-23T00:05:30.503Z,6.50
2019-04-23T00:07:56.199Z,6.70
2019-04-23T00:10:28.624Z,6.67
2019-04-23T00:12:53.060Z,6.30
2019-04-23T00:15:23.834Z,6.40
2019-04-23T00:18:10.135Z,7.23
2019-04-23T00:20:27.232Z,6.67
2019-04-23T00:23:06.422Z,6.60
2019-04-23T00:25:51.046Z,7.23
2019-04-23T00:28:16.118Z,6.83
2019-04-23T00:30:43.212Z,7.00
2019-04-23T00:33:12.585Z,6.93
2019-04-23T00:35:38.850Z,7.07
2019-04-23T00:38:11.997Z,6.50
2019-04-23T00:40:40.611Z,6.90
2019-04-23T00:43:09.181Z,7.37
2019-04-23T00:48:18.311Z,6.70
2019-04-23T00:50:53.036Z,6.43
2019-04-23T00:53:13.788Z,6.90
2019-04-23T00:55:42.572Z,6.17
2019-04-23T01:03:12.563Z,6.27
2019-04-23T01:06:02.314Z,6.57
2019-04-23T01:08:18.532Z,6.20
2019-04-23T01:10:56.256Z,6.60
2019-04-23T01:15:59.578Z,6.67
2019-04-23T01:18:38.172Z,7.17
2019-04-23T01:20:54.832Z,6.30
2019-04-23T01:23:13.808Z,5.90
2019-04-23T01:25:58.157Z,6.33
2019-04-23T01:28:53.813Z,6.10
2019-04-23T01:31:18.270Z,7.03
2019-04-23T01:33:46.640Z,7.10
2019-04-23T01:36:21.445Z,7.47
2019-04-23T01:38:46.179Z,7.13
2019-04-23T01:41:12.906Z,7.47
2019-04-23T01:46:16.210Z,6.73
2019-04-23T01:48:48.180Z,6.87
2019-04-23T01:51:19.033Z,6.80
2019-04-23T01:53:49.650Z,7.07
2019-04-23T01:56:19.454Z,6.50
2019-04-23T02:01:18.677Z,5.90
2019-04-23T02:06:22.103Z,5.80
2019-04-23T02:08:55.285Z,6.27
2019-04-23T02:11:23.204Z,5.97
2019-04-23T02:13:55.584Z,5.77
2019-04-23T02:16:27.606Z,5.67
2019-04-23T02:21:41.334Z,5.53
2019-04-23T02:24:12.693Z,5.70
2019-04-23T02:29:25.664Z,5.23
2019-04-23T02:32:03.620Z,5.20
2019-04-23T02:34:31.234Z,5.80
2019-04-23T02:39:26.399Z,5.60
2019-04-23T02:42:07.913Z,5.27
2019-04-23T02:44:36.012Z,5.63
2019-04-23T02:47:03.463Z,5.07
2019-04-23T02:49:44.336Z,5.30
2019-04-23T02:54:37.440Z,5.90
2019-04-23T02:57:08.802Z,5.20
2019-04-23T03:02:05.832Z,4.70
2019-04-23T03:07:03.231Z,4.80
2019-04-23T03:14:35.306Z,5.07
2019-04-23T03:22:15.791Z,5.17
2019-04-23T03:25:03.934Z,4.90
2019-04-23T03:27:23.316Z,5.23
2019-04-23T03:39:56.768Z,4.50
2019-04-23T03:42:17.308Z,4.70
2019-04-23T03:45:00.624Z,4.13
2019-04-23T03:47:24.962Z,4.57
2019-04-23T03:50:02.514Z,4.93
2019-04-23T03:52:31.341Z,5.00
2019-04-23T03:55:01.217Z,4.60
2019-04-23T03:57:24.549Z,4.70
2019-04-23T03:59:58.932Z,4.80
2019-04-23T04:02:42.042Z,4.83
2019-04-23T04:04:44.589Z,4.90
2019-04-23T04:12:30.043Z,4.57
2019-04-23T04:15:18.346Z,4.93
2019-04-23T04:19:56.311Z,4.80
2019-04-23T04:22:46.637Z,4.53
2019-04-23T04:25:03.256Z,4.57
2019-04-23T04:30:01.252Z,5.00
2019-04-23T04:32:47.257Z,4.60
2019-04-23T04:40:05.135Z,4.40
2019-04-23T04:42:27.459Z,4.57
2019-04-23T04:47:35.411Z,4.97
2019-04-23T04:55:03.265Z,4.60
2019-04-23T04:57:36.528Z,4.40
2019-04-23T05:03:02.746Z,4.17
2019-04-23T05:05:29.758Z,4.80
2019-04-23T05:07:34.069Z,5.07
2019-04-23T05:12:32.582Z,4.40
2019-04-23T05:18:03.588Z,4.83
2019-04-23T05:20:13.159Z,5.27
2019-04-23T05:25:04.177Z,4.20
2019-04-23T05:27:47.162Z,4.27
2019-04-23T05:30:22.552Z,4.57
2019-04-23T05:32:41.208Z,5.00
2019-04-23T05:35:13.614Z,4.70
2019-04-23T05:37:50.461Z,4.57
2019-04-23T05:40:18.433Z,4.33
2019-04-23T05:42:44.478Z,4.70
2019-04-23T05:45:09.790Z,5.17
2019-04-23T05:47:48.199Z,5.10
2019-04-23T05:50:21.545Z,4.47
2019-04-23T05:52:47.910Z,4.57
2019-04-23T05:55:13.349Z,4.90
2019-04-23T05:57:43.783Z,4.77
2019-04-23T06:00:17.472Z,4.67
2019-04-23T06:02:50.119Z,4.90
2019-04-23T06:05:19.227Z,4.33
2019-04-23T06:07:47.779Z,4.07
2019-04-23T06:10:18.105Z,5.53
2019-04-23T06:12:47.190Z,4.87
2019-04-23T06:15:20.160Z,4.60
2019-04-23T06:17:47.704Z,4.80
2019-04-23T06:20:21.944Z,4.00
2019-04-23T06:22:51.151Z,4.20
2019-04-23T06:25:33.789Z,4.07
2019-04-23T06:28:08.257Z,4.30
2019-04-23T06:31:01.615Z,4.37
2019-04-23T06:32:52.456Z,4.00
2019-04-23T06:35:15.224Z,4.00
2019-04-23T06:38:14.668Z,4.17
2019-04-23T06:40:23.554Z,4.47
2019-04-23T06:42:52.133Z,4.93
2019-04-23T06:45:22.091Z,3.97
2019-04-23T06:47:55.540Z,3.97
2019-04-23T06:50:19.540Z,4.30
2019-04-23T06:52:50.669Z,4.80
2019-04-23T06:57:58.764Z,4.30
2019-04-23T07:00:28.651Z,4.40
2019-04-23T07:02:53.853Z,4.67
2019-04-23T07:05:47.628Z,4.47
2019-04-23T07:07:58.347Z,4.70
2019-04-23T07:10:29.898Z,4.87
2019-04-23T07:12:59.715Z,3.97
2019-04-23T07:15:46.540Z,4.50
2019-04-23T07:17:58.769Z,4.23
2019-04-23T07:20:28.687Z,4.70
2019-04-23T07:23:10.615Z,4.23
2019-04-23T07:25:32.753Z,4.07
2019-04-23T07:27:59.443Z,4.63
2019-04-23T07:33:05.677Z,5.67
2019-04-23T07:35:30.551Z,5.40
2019-04-23T07:38:38.845Z,5.50
2019-04-23T07:41:12.017Z,5.20
2019-04-23T07:43:42.530Z,5.20
2019-04-23T07:46:20.278Z,5.53
2019-04-23T07:48:43.985Z,5.50
2019-04-23T07:51:16.175Z,5.33
2019-04-23T07:53:46.536Z,5.50
2019-04-23T07:56:15.560Z,5.37
2019-04-23T07:58:39.302Z,5.87
2019-04-23T08:01:14.169Z,5.20
2019-04-23T08:03:48.131Z,6.10
2019-04-23T08:06:15.574Z,5.70
2019-04-23T08:08:52.027Z,5.37
2019-04-23T08:13:53.649Z,5.73
2019-04-23T08:16:29.429Z,5.50
2019-04-23T08:23:55.469Z,5.83
2019-04-23T08:29:06.208Z,6.40
2019-04-23T08:31:33.612Z,6.57
2019-04-23T08:34:05.752Z,6.17
2019-04-23T08:36:34.512Z,6.83
2019-04-23T08:38:57.536Z,6.30
2019-04-23T08:41:33.773Z,6.30
2019-04-23T08:44:24.067Z,5.93
2019-04-23T08:49:29.579Z,6.00
2019-04-23T08:52:10.509Z,6.00
2019-04-23T08:54:42.934Z,5.83
2019-04-23T08:57:02.726Z,5.93
2019-04-23T09:02:18.880Z,6.03
2019-04-23T09:04:30.826Z,6.33
2019-04-23T09:07:04.826Z,6.57
2019-04-23T09:09:34.749Z,6.00
2019-04-23T09:12:04.469Z,6.77
2019-04-23T09:14:34.409Z,6.17
2019-04-23T09:17:04.615Z,6.93
2019-04-23T09:19:51.899Z,6.20
2019-04-23T09:22:07.187Z,6.07
2019-04-23T09:24:32.677Z,6.73
2019-04-23T09:27:05.623Z,6.67
2019-04-23T09:35:06.012Z,6.37
2019-04-23T09:37:44.148Z,6.50
2019-04-23T09:40:27.508Z,7.17
2019-04-23T09:42:54.557Z,6.07
2019-04-23T09:45:34.221Z,7.27
2019-04-23T09:48:01.410Z,7.73
2019-04-23T09:55:38.484Z,7.63
2019-04-23T09:58:11.733Z,7.20
2019-04-23T10:00:41.972Z,7.30
2019-04-23T10:03:01.613Z,7.33
2019-04-23T10:05:28.777Z,7.33
2019-04-23T10:07:54.412Z,6.83
2019-04-23T10:10:16.434Z,6.27
2019-04-23T10:12:46.069Z,6.77
2019-04-23T10:15:22.815Z,7.10
2019-04-23T10:17:46.421Z,7.00
2019-04-23T10:20:16.400Z,7.10
2019-04-23T10:22:46.279Z,7.00
2019-04-23T10:25:15.346Z,7.50
2019-04-23T10:27:45.245Z,7.90
2019-04-23T10:30:14.557Z,7.87
2019-04-23T10:32:43.343Z,7.33
2019-04-23T10:35:22.249Z,7.30
2019-04-23T10:37:49.113Z,7.43
2019-04-23T10:40:19.391Z,7.03
2019-04-23T10:42:46.030Z,7.30
2019-04-23T10:45:37.014Z,7.53
2019-04-23T10:48:28.074Z,8.00
2019-04-23T10:51:10.377Z,8.37
2019-04-23T10:53:30.060Z,7.90
2019-04-23T10:55:54.141Z,7.60
2019-04-23T10:58:34.935Z,7.70
2019-04-23T11:01:01.535Z,8.10
2019-04-23T11:03:42.114Z,8.10
2019-04-23T11:05:59.073Z,7.97
2019-04-23T11:08:27.771Z,7.37
2019-04-23T11:10:58.682Z,8.23
2019-04-23T11:13:43.398Z,7.83
2019-04-23T11:18:45.432Z,8.30
2019-04-23T11:21:09.159Z,8.57
2019-04-23T11:23:34.548Z,8.60
2019-04-23T11:26:07.803Z,9.20
2019-04-23T11:28:37.799Z,9.97
2019-04-23T11:31:12.028Z,9.57
2019-04-23T11:33:40.058Z,8.60
2019-04-23T11:36:45.872Z,10.07
2019-04-23T11:41:12.645Z,10.20
2019-04-23T11:43:42.405Z,9.03
2019-04-23T11:46:34.055Z,9.53
2019-04-23T11:48:52.291Z,9.57
2019-04-23T11:53:48.130Z,9.20
2019-04-23T11:56:22.846Z,9.90
2019-04-23T11:58:42.603Z,9.63
2019-04-23T12:01:37.114Z,8.43
2019-04-23T12:04:05.233Z,9.23
2019-04-23T12:06:44.465Z,9.80
2019-04-23T12:09:40.307Z,8.60
2019-04-23T12:12:10.783Z,9.03
2019-04-23T12:14:37.501Z,9.00
2019-04-23T12:17:09.151Z,9.10
2019-04-23T12:19:52.988Z,8.90
2019-04-23T12:22:01.034Z,9.30
2019-04-23T12:27:04.135Z,9.90
2019-04-23T12:29:35.374Z,9.67
2019-04-23T12:32:35.980Z,9.70
2019-04-23T12:34:55.652Z,10.60
2019-04-23T12:37:21.475Z,10.40
2019-04-23T12:39:51.123Z,10.87
2019-04-23T12:42:45.349Z,9.90
2019-04-23T12:44:58.024Z,10.40
2019-04-23T12:47:41.644Z,9.93
2019-04-23T12:50:05.433Z,11.30
2019-04-23T12:52:30.731Z,12.17
2019-04-23T12:59:50.381Z,11.97
2019-04-23T13:02:34.319Z,11.93
2019-04-23T13:04:57.379Z,12.93
2019-04-23T13:07:36.419Z,12.93
2019-04-23T13:09:59.361Z,12.27
2019-04-23T13:12:40.014Z,12.20
2019-04-23T13:14:57.644Z,12.00
2019-04-23T13:17:39.711Z,11.83
2019-04-23T13:22:36.057Z,11.23
2019-04-23T13:25:02.047Z,11.77
2019-04-23T13:27:54.348Z,11.63
2019-04-23T13:30:25.354Z,11.23
2019-04-23T13:32:55.302Z,11.30
2019-04-23T13:35:28.011Z,11.30
2019-04-23T13:37:56.923Z,12.23
2019-04-23T13:40:24.749Z,11.67
2019-04-23T13:42:52.423Z,11.83
2019-04-23T13:45:53.596Z,12.53
2019-04-23T13:47:59.693Z,12.33
2019-04-23T13:50:33.028Z,12.27
2019-04-23T13:55:14.437Z,12.07
2019-04-23T14:00:44.660Z,12.80
2019-04-23T14:02:52.524Z,12.10
2019-04-23T14:07:54.528Z,11.67
2019-04-23T14:10:29.443Z,11.83
2019-04-23T14:13:10.542Z,12.73
2019-04-23T14:18:20.837Z,12.67
2019-04-23T14:20:28.000Z,12.37
2019-04-23T14:23:08.346Z,12.20
2019-04-23T14:25:34.386Z,13.40
2019-04-23T14:28:13.993Z,12.57
2019-04-23T14:30:37.300Z,13.27
2019-04-23T14:33:11.510Z,12.93
2019-04-23T14:35:45.397Z,12.77
2019-04-23T14:38:15.688Z,12.63
2019-04-23T14:40:43.192Z,12.80
2019-04-23T14:46:00.440Z,13.97
2019-04-23T14:50:44.226Z,12.50
2019-04-23T14:58:23.764Z,11.67
2019-04-23T15:01:07.242Z,12.63
2019-04-23T15:03:27.185Z,11.93
2019-04-23T15:08:25.281Z,11.73
2019-04-23T15:13:23.201Z,11.97
2019-04-23T15:16:02.979Z,11.73
2019-04-23T15:18:25.251Z,11.88
2019-04-23T15:21:34.144Z,11.83
2019-04-23T15:24:00.239Z,12.70
2019-04-23T15:27:02.372Z,11.38
2019-04-23T15:28:16.737Z,12.13
2019-04-23T15:31:28.318Z,12.90
2019-04-23T15:41:15.251Z,10.90
2019-04-23T15:43:54.596Z,10.68
2019-04-23T15:46:20.256Z,11.93
2019-04-23T15:48:57.066Z,12.53
2019-04-23T15:51:20.397Z,11.77
2019-04-23T15:53:44.613Z,11.67
2019-04-23T15:56:30.145Z,11.53
2019-04-23T15:59:14.081Z,11.90
2019-04-23T16:01:31.968Z,12.63
2019-04-23T16:03:26.698Z,12.50
2019-04-23T16:05:54.707Z,12.53
2019-04-23T16:09:04.880Z,13.07
2019-04-23T16:11:33.597Z,12.40
2019-04-23T16:14:10.868Z,11.50
2019-04-23T16:16:31.595Z,12.00
2019-04-23T16:19:05.483Z,12.27
2019-04-23T16:21:41.782Z,11.47
2019-04-23T16:24:00.722Z,10.87
2019-04-23T16:26:30.189Z,10.80
2019-04-23T16:31:34.931Z,10.67
2019-04-23T16:34:06.853Z,10.30
2019-04-23T16:36:32.857Z,10.53
2019-04-23T16:39:01.977Z,9.90
2019-04-23T16:41:30.963Z,9.97
2019-04-23T16:44:03.526Z,9.63
2019-04-23T16:46:31.941Z,10.10
2019-04-23T16:54:09.909Z,10.70
2019-04-23T16:59:17.915Z,11.00
2019-04-23T17:01:35.194Z,11.20
2019-04-23T17:04:12.043Z,11.93
2019-04-23T17:06:36.727Z,11.27
2019-04-23T17:09:10.235Z,11.30
2019-04-23T17:11:35.909Z,10.80
2019-04-23T17:19:16.510Z,10.70
2019-04-23T17:21:36.672Z,12.03
2019-04-23T17:26:35.772Z,11.27
2019-04-23T17:29:13.692Z,11.00
2019-04-23T17:34:17.573Z,10.73
2019-04-23T17:36:44.352Z,10.57
2019-04-23T17:39:18.263Z,10.40
2019-04-23T17:47:13.451Z,9.63
2019-04-23T17:49:42.589Z,8.53
2019-04-23T17:52:13.063Z,8.93
2019-04-23T17:54:53.476Z,9.27
2019-04-23T18:00:07.267Z,8.47
2019-04-23T18:07:38.350Z,8.43
2019-04-23T18:14:52.712Z,8.87
2019-04-23T18:17:26.733Z,8.57
2019-04-23T18:19:58.411Z,8.80
2019-04-23T18:22:35.520Z,8.50
2019-04-23T18:25:05.782Z,8.27
2019-04-23T18:27:31.394Z,8.60
2019-04-23T18:30:23.175Z,8.27
2019-04-23T18:35:24.351Z,9.50
2019-04-23T18:37:56.419Z,7.97
2019-04-23T18:40:28.715Z,9.20
2019-04-23T18:42:57.667Z,8.33
2019-04-23T18:45:33.919Z,8.03
2019-04-23T18:47:55.961Z,8.10
2019-04-23T18:50:39.714Z,8.80
2019-04-23T18:53:04.585Z,9.37
2019-04-23T18:55:49.131Z,9.27
2019-04-23T18:58:04.031Z,8.93
2019-04-23T19:00:49.942Z,9.20
2019-04-23T19:03:26.365Z,8.73
2019-04-23T19:06:18.708Z,8.40
2019-04-23T19:11:18.354Z,9.03
2019-04-23T19:13:42.114Z,8.33
2019-04-23T19:16:07.410Z,9.30
2019-04-23T19:18:41.604Z,9.00
2019-04-23T19:21:13.860Z,9.20
2019-04-23T19:23:47.659Z,9.43
2019-04-23T19:26:15.510Z,9.50
2019-04-23T19:28:55.923Z,9.63
2019-04-23T19:31:33.257Z,10.23
2019-04-23T19:34:18.219Z,10.37
2019-04-23T19:36:39.931Z,10.07
2019-04-23T19:39:11.063Z,10.00
2019-04-23T19:41:52.481Z,10.23
2019-04-23T19:44:08.501Z,10.70
2019-04-23T19:46:52.363Z,10.57
2019-04-23T19:51:42.996Z,10.93
2019-04-23T19:56:48.422Z,10.80
2019-04-23T19:59:01.895Z,11.97
2019-04-23T20:01:41.670Z,11.27
2019-04-23T20:04:04.463Z,11.50
2019-04-23T20:11:50.556Z,12.77
2019-04-23T20:14:44.332Z,13.37
2019-04-23T20:16:48.586Z,12.73
2019-04-23T20:19:18.778Z,12.73
2019-04-23T20:21:52.997Z,13.70
2019-04-23T20:26:50.775Z,13.50
2019-04-23T20:34:49.631Z,14.17
2019-04-23T20:36:57.797Z,14.27
2019-04-23T20:44:50.439Z,14.40
2019-04-23T20:47:11.496Z,15.03
2019-04-23T20:52:08.789Z,15.20
2019-04-23T20:57:44.078Z,15.20
2019-04-23T21:00:24.213Z,13.60
2019-04-23T21:03:08.252Z,14.00
2019-04-23T21:05:19.533Z,13.53
2019-04-23T21:07:54.129Z,13.47
2019-04-23T21:10:34.262Z,13.73
2019-04-23T21:20:24.511Z,12.80
2019-04-23T21:22:55.568Z,13.00
2019-04-23T21:25:27.489Z,12.37
2019-04-23T21:28:14.202Z,13.03
2019-04-23T21:33:34.090Z,12.57
2019-04-23T21:36:18.760Z,13.30
2019-04-23T21:39:04.279Z,12.20
2019-04-23T21:41:45.153Z,12.70
2019-04-23T21:46:36.823Z,13.00
2019-04-23T21:56:39.642Z,12.77
2019-04-23T22:04:39.868Z,12.83
2019-04-23T22:06:42.941Z,12.77
2019-04-23T22:21:45.324Z,13.20
2019-04-23T22:24:17.014Z,13.30
2019-04-23T22:26:38.104Z,12.97
2019-04-23T22:31:47.252Z,12.30
2019-04-23T22:34:17.614Z,13.53
2019-04-23T22:39:18.210Z,13.10
2019-04-23T22:46:56.194Z,14.10
2019-04-23T22:49:41.959Z,13.83
2019-04-23T22:51:56.902Z,14.53
2019-04-23T22:54:44.842Z,14.47
2019-04-23T22:56:54.766Z,13.93
2019-04-23T22:59:35.428Z,14.10
2019-04-23T23:02:01.266Z,13.97
2019-04-23T23:04:28.990Z,14.47
2019-04-23T23:07:03.023Z,13.90
2019-04-23T23:12:05.276Z,14.80
2019-04-23T23:14:38.493Z,15.43
2019-04-23T23:17:08.797Z,14.43
2019-04-23T23:19:40.410Z,14.50
2019-04-23T23:24:39.355Z,15.37
2019-04-23T23:29:42.010Z,15.77
2019-04-23T23:32:07.810Z,16.40
2019-04-23T23:34:54.309Z,16.47
2019-04-23T23:37:07.534Z,17.13
2019-04-23T23:39:52.517Z,16.47
2019-04-23T23:42:14.417Z,16.10
2019-04-23T23:47:21.196Z,16.00
2019-04-23T23:49:43.515Z,16.27
2019-04-23T23:52:15.670Z,16.70
2019-04-23T23:54:50.474Z,16.40
2019-04-23T23:57:16.544Z,17.43
